createdAt,value
2019-05-12T00:01:48.250Z,2.25
2019-05-12T00:04:12.590Z,2.30
2019-05-12T00:06:38.715Z,2.22
2019-05-12T00:09:03.563Z,2.05
2019-05-12T00:11:28.728Z,2.05
2019-05-12T00:13:53.057Z,1.85
2019-05-12T00:16:17.686Z,2.10
2019-05-12T00:18:42.825Z,2.00
2019-05-12T00:21:08.778Z,1.90
2019-05-12T00:23:34.435Z,1.77
2019-05-12T00:26:07.989Z,1.65
2019-05-12T00:28:32.172Z,1.82
2019-05-12T00:30:58.039Z,1.90
2019-05-12T00:33:22.212Z,1.77
2019-05-12T00:35:48.109Z,1.60
2019-05-12T00:38:11.828Z,1.65
2019-05-12T00:40:38.805Z,1.65
2019-05-12T00:43:02.002Z,1.92
2019-05-12T00:45:29.159Z,1.60
2019-05-12T00:47:55.073Z,1.70
2019-05-12T00:50:19.403Z,1.20
2019-05-12T00:52:43.619Z,1.80
2019-05-12T00:55:09.307Z,1.55
2019-05-12T00:57:33.322Z,1.52
2019-05-12T00:59:58.236Z,1.35
2019-05-12T01:02:23.735Z,1.40
2019-05-12T01:04:48.650Z,1.57
2019-05-12T01:07:12.982Z,1.62
2019-05-12T01:09:38.671Z,1.40
2019-05-12T01:12:03.278Z,1.30
2019-05-12T01:14:28.025Z,1.40
2019-05-12T01:16:52.764Z,1.55
2019-05-12T01:19:18.518Z,1.25
2019-05-12T01:21:42.656Z,1.52
2019-05-12T01:24:08.722Z,1.27
2019-05-12T01:26:33.978Z,1.12
2019-05-12T01:28:59.425Z,1.12
2019-05-12T01:31:25.119Z,1.22
2019-05-12T01:33:49.210Z,1.27
2019-05-12T01:36:13.525Z,1.30
2019-05-12T01:38:39.269Z,1.32
2019-05-12T01:41:03.463Z,1.20
2019-05-12T01:43:27.882Z,1.20
2019-05-12T01:45:52.134Z,1.45
2019-05-12T01:48:18.328Z,1.20
2019-05-12T01:50:42.456Z,1.20
2019-05-12T01:53:09.903Z,1.25
2019-05-12T01:55:34.021Z,1.67
2019-05-12T01:57:58.118Z,1.50
2019-05-12T02:00:22.578Z,1.32
2019-05-12T02:02:48.069Z,1.40
2019-05-12T02:05:12.762Z,1.35
2019-05-12T02:07:47.818Z,1.30
2019-05-12T02:10:12.252Z,1.22
2019-05-12T02:12:38.299Z,1.20
2019-05-12T02:15:02.289Z,1.25
2019-05-12T02:17:28.347Z,1.37
2019-05-12T02:19:52.556Z,1.27
2019-05-12T02:22:18.845Z,1.42
2019-05-12T02:24:43.685Z,1.50
2019-05-12T02:27:08.338Z,1.20
2019-05-12T02:29:32.491Z,1.40
2019-05-12T02:31:58.994Z,1.42
2019-05-12T02:34:25.345Z,1.27
2019-05-12T02:36:47.980Z,1.40
2019-05-12T02:39:14.654Z,1.42
2019-05-12T02:41:36.764Z,1.40
2019-05-12T02:44:00.288Z,1.50
2019-05-12T02:46:25.556Z,1.40
2019-05-12T02:48:49.091Z,1.37
2019-05-12T02:51:15.545Z,1.40
2019-05-12T02:53:38.374Z,1.30
2019-05-12T02:56:05.040Z,1.60
2019-05-12T02:58:30.319Z,1.47
2019-05-12T03:00:57.409Z,1.57
2019-05-12T03:03:25.148Z,1.35
2019-05-12T03:05:50.479Z,1.90
2019-05-12T03:08:15.491Z,1.60
2019-05-12T03:10:39.412Z,1.57
2019-05-12T03:13:04.239Z,1.52
2019-05-12T03:15:28.182Z,1.70
2019-05-12T03:17:54.467Z,1.47
2019-05-12T03:20:17.223Z,1.70
2019-05-12T03:22:40.736Z,1.67
2019-05-12T03:25:15.525Z,1.70
2019-05-12T03:27:30.781Z,1.60
2019-05-12T03:29:55.197Z,1.50
2019-05-12T03:32:19.217Z,1.87
2019-05-12T03:34:47.413Z,1.75
2019-05-12T03:37:08.661Z,1.90
2019-05-12T03:39:34.381Z,1.70
2019-05-12T03:41:57.744Z,2.22
2019-05-12T03:44:21.259Z,1.87
2019-05-12T03:46:45.719Z,1.77
2019-05-12T03:49:10.194Z,1.95
2019-05-12T03:51:34.986Z,1.80
2019-05-12T03:53:58.819Z,1.87
2019-05-12T03:56:25.573Z,1.60
2019-05-12T03:58:47.600Z,1.45
2019-05-12T04:01:11.160Z,1.57
2019-05-12T04:03:34.876Z,1.62
2019-05-12T04:05:58.411Z,1.70
2019-05-12T04:08:24.637Z,1.77
2019-05-12T04:10:47.494Z,1.67
2019-05-12T04:13:11.097Z,2.00
2019-05-12T04:15:35.495Z,1.70
2019-05-12T04:17:59.765Z,1.60
2019-05-12T04:20:25.482Z,1.98
2019-05-12T04:22:49.851Z,1.87
2019-05-12T04:25:14.549Z,1.40
2019-05-12T04:27:38.649Z,2.02
2019-05-12T04:30:05.497Z,1.70
2019-05-12T04:32:28.760Z,1.47
2019-05-12T04:34:55.081Z,1.90
2019-05-12T04:37:17.829Z,1.57
2019-05-12T04:39:44.544Z,1.40
2019-05-12T04:42:07.743Z,1.60
2019-05-12T04:44:34.740Z,1.75
2019-05-12T04:46:57.747Z,1.55
2019-05-12T04:49:25.065Z,1.67
2019-05-12T04:51:47.566Z,1.60
2019-05-12T04:54:15.193Z,1.42
2019-05-12T04:56:38.505Z,1.60
2019-05-12T04:59:05.011Z,1.40
2019-05-12T05:01:28.831Z,1.80
2019-05-12T05:03:54.563Z,1.90
2019-05-12T05:06:18.977Z,1.92
2019-05-12T05:08:44.228Z,1.65
2019-05-12T05:11:08.779Z,2.08
2019-05-12T05:13:36.761Z,2.37
2019-05-12T05:16:00.469Z,2.20
2019-05-12T05:18:27.459Z,1.90
2019-05-12T05:20:51.494Z,2.25
2019-05-12T05:23:17.084Z,2.10
2019-05-12T05:25:43.494Z,2.00
2019-05-12T05:28:09.757Z,2.05
2019-05-12T05:30:34.938Z,2.20
2019-05-12T05:32:59.056Z,2.12
2019-05-12T05:35:23.938Z,2.20
2019-05-12T05:37:48.336Z,2.15
2019-05-12T05:40:14.052Z,3.42
2019-05-12T05:42:40.228Z,5.47
2019-05-12T05:45:09.801Z,6.08
2019-05-12T05:47:33.628Z,4.97
2019-05-12T05:49:58.938Z,5.72
2019-05-12T05:52:24.579Z,5.97
2019-05-12T05:54:49.914Z,6.20
2019-05-12T05:57:20.049Z,6.00
2019-05-12T05:59:44.684Z,6.35
2019-05-12T06:02:08.949Z,5.65
2019-05-12T06:04:34.178Z,5.45
2019-05-12T06:06:58.312Z,5.60
2019-05-12T06:09:23.764Z,5.87
2019-05-12T06:11:47.797Z,5.60
2019-05-12T06:14:14.081Z,5.75
2019-05-12T06:16:37.640Z,6.70
2019-05-12T06:19:03.457Z,6.28
2019-05-12T06:21:33.393Z,5.60
2019-05-12T06:23:54.151Z,5.37
2019-05-12T06:26:20.944Z,5.50
2019-05-12T06:28:44.043Z,5.62
2019-05-12T06:31:07.888Z,4.95
2019-05-12T06:33:36.064Z,5.22
2019-05-12T06:35:56.741Z,5.35
2019-05-12T06:38:20.288Z,5.00
2019-05-12T06:40:45.349Z,5.20
2019-05-12T06:43:09.299Z,6.65
2019-05-12T06:45:39.666Z,16.55
2019-05-12T06:47:59.027Z,10.00
2019-05-12T06:50:23.727Z,5.35
2019-05-12T06:52:49.176Z,6.00
2019-05-12T06:55:14.708Z,4.90
2019-05-12T06:57:39.960Z,5.37
2019-05-12T07:00:04.791Z,4.85
2019-05-12T07:02:30.408Z,5.37
2019-05-12T07:04:59.410Z,5.50
2019-05-12T07:07:20.069Z,4.92
2019-05-12T07:09:51.996Z,5.00
2019-05-12T07:12:08.890Z,5.60
2019-05-12T07:14:34.564Z,4.47
2019-05-12T07:17:01.748Z,5.22
2019-05-12T07:19:25.548Z,5.30
2019-05-12T07:21:50.838Z,5.08
2019-05-12T07:24:14.629Z,5.40
2019-05-12T07:26:38.137Z,4.97
2019-05-12T07:29:04.228Z,4.97
2019-05-12T07:31:27.145Z,5.30
2019-05-12T07:33:50.672Z,5.40
2019-05-12T07:36:15.863Z,7.20
2019-05-12T07:38:43.258Z,9.15
2019-05-12T07:41:10.548Z,7.62
2019-05-12T07:43:33.771Z,9.80
2019-05-12T07:46:03.106Z,20.10
2019-05-12T07:48:25.798Z,5.55
2019-05-12T07:50:50.382Z,5.17
2019-05-12T07:53:14.673Z,5.37
2019-05-12T07:55:39.752Z,5.25
2019-05-12T07:58:13.710Z,5.47
2019-05-12T08:00:30.018Z,7.78
2019-05-12T08:02:54.106Z,8.88
2019-05-12T08:05:21.135Z,5.90
2019-05-12T08:07:44.581Z,5.40
2019-05-12T08:10:17.684Z,5.58
2019-05-12T08:12:34.526Z,5.30
2019-05-12T08:14:59.464Z,5.22
2019-05-12T08:17:24.686Z,5.60
2019-05-12T08:19:50.130Z,5.58
2019-05-12T08:22:18.927Z,5.92
2019-05-12T08:24:43.507Z,5.75
2019-05-12T08:27:06.399Z,6.37
2019-05-12T08:29:30.335Z,6.62
2019-05-12T08:31:54.876Z,6.45
2019-05-12T08:34:18.598Z,5.90
2019-05-12T08:36:44.955Z,5.37
2019-05-12T08:39:11.753Z,5.33
2019-05-12T08:41:34.165Z,5.92
2019-05-12T08:43:58.567Z,7.78
2019-05-12T08:46:24.323Z,6.60
2019-05-12T08:48:51.662Z,6.33
2019-05-12T08:51:16.725Z,6.12
2019-05-12T08:53:38.891Z,5.55
2019-05-12T08:56:12.194Z,5.70
2019-05-12T08:58:34.032Z,6.62
2019-05-12T09:00:55.743Z,5.17
2019-05-12T09:03:20.505Z,6.50
2019-05-12T09:05:44.762Z,5.70
2019-05-12T09:08:08.271Z,5.03
2019-05-12T09:10:33.751Z,4.53
2019-05-12T09:12:57.140Z,4.42
2019-05-12T09:15:20.669Z,4.92
2019-05-12T09:17:52.669Z,4.33
2019-05-12T09:20:09.947Z,4.15
2019-05-12T09:22:34.276Z,3.60
2019-05-12T09:24:58.400Z,4.17
2019-05-12T09:27:24.139Z,3.70
2019-05-12T09:29:47.727Z,4.08
2019-05-12T09:32:11.290Z,3.60
2019-05-12T09:34:34.907Z,5.10
2019-05-12T09:36:59.851Z,4.17
2019-05-12T09:39:23.740Z,2.60
2019-05-12T09:41:50.765Z,3.17
2019-05-12T09:44:13.398Z,2.98
2019-05-12T09:46:37.724Z,2.80
2019-05-12T09:49:01.376Z,2.67
2019-05-12T09:51:24.972Z,2.50
2019-05-12T09:53:55.176Z,2.33
2019-05-12T09:56:13.896Z,2.02
2019-05-12T09:58:37.457Z,2.10
2019-05-12T10:01:03.491Z,3.20
2019-05-12T10:03:30.859Z,2.02
2019-05-12T10:05:53.458Z,2.10
2019-05-12T10:08:17.038Z,2.40
2019-05-12T10:10:43.983Z,2.27
2019-05-12T10:13:05.945Z,1.90
2019-05-12T10:15:29.470Z,1.82
2019-05-12T10:17:53.986Z,2.12
2019-05-12T10:20:17.900Z,1.77
2019-05-12T10:22:43.763Z,1.67
2019-05-12T10:25:09.281Z,1.52
2019-05-12T10:27:34.571Z,2.17
2019-05-12T10:30:03.272Z,3.08
2019-05-12T10:32:24.042Z,2.20
2019-05-12T10:34:47.617Z,2.02
2019-05-12T10:37:13.221Z,3.10
2019-05-12T10:39:36.523Z,1.70
2019-05-12T10:42:00.150Z,1.52
2019-05-12T10:44:23.713Z,1.45
2019-05-12T10:46:49.998Z,1.40
2019-05-12T10:49:13.948Z,1.50
2019-05-12T10:51:37.611Z,1.27
2019-05-12T10:54:07.702Z,1.10
2019-05-12T10:56:26.506Z,1.20
2019-05-12T10:58:50.104Z,1.30
2019-05-12T11:01:13.633Z,1.30
2019-05-12T11:03:37.224Z,1.77
2019-05-12T11:06:02.893Z,1.30
2019-05-12T11:08:26.136Z,0.95
2019-05-12T11:10:50.352Z,1.98
2019-05-12T11:13:18.041Z,1.67
2019-05-12T11:15:46.159Z,1.30
2019-05-12T11:18:09.663Z,1.40
2019-05-12T11:20:34.510Z,1.07
2019-05-12T11:22:59.643Z,1.20
2019-05-12T11:25:24.811Z,1.37
2019-05-12T11:27:48.505Z,1.42
2019-05-12T11:30:13.180Z,1.20
2019-05-12T11:32:38.053Z,1.10
2019-05-12T11:35:03.996Z,1.05
2019-05-12T11:37:29.049Z,1.37
2019-05-12T11:39:53.556Z,1.40
2019-05-12T11:42:17.338Z,1.15
2019-05-12T11:44:41.020Z,1.45
2019-05-12T11:47:04.583Z,1.20
2019-05-12T11:49:28.221Z,1.05
2019-05-12T11:51:54.246Z,1.12
2019-05-12T11:54:18.056Z,1.60
2019-05-12T11:56:46.624Z,1.30
2019-05-12T11:59:08.169Z,1.10
2019-05-12T12:01:31.695Z,1.30
2019-05-12T12:03:55.253Z,1.20
2019-05-12T12:06:18.841Z,1.50
2019-05-12T12:08:44.134Z,1.15
2019-05-12T12:11:10.687Z,1.12
2019-05-12T12:13:33.655Z,1.20
2019-05-12T12:16:00.399Z,1.35
2019-05-12T12:18:23.737Z,1.40
2019-05-12T12:20:48.143Z,1.10
2019-05-12T12:23:13.915Z,1.10
2019-05-12T12:25:37.235Z,1.10
2019-05-12T12:28:01.211Z,1.10
2019-05-12T12:30:25.417Z,1.10
2019-05-12T12:32:50.364Z,1.02
2019-05-12T12:35:15.162Z,0.90
2019-05-12T12:37:39.076Z,1.15
2019-05-12T12:40:04.244Z,1.10
2019-05-12T12:42:30.434Z,0.98
2019-05-12T12:44:58.856Z,1.07
2019-05-12T12:47:19.164Z,1.10
2019-05-12T12:49:45.236Z,1.22
2019-05-12T12:52:08.619Z,1.10
2019-05-12T12:54:33.282Z,1.30
2019-05-12T12:57:00.136Z,1.55
2019-05-12T12:59:24.061Z,0.90
2019-05-12T13:01:47.679Z,2.50
2019-05-12T13:04:13.258Z,1.30
2019-05-12T13:06:36.646Z,1.80
2019-05-12T13:09:00.203Z,0.90
2019-05-12T13:11:33.206Z,1.10
2019-05-12T13:13:49.095Z,1.10
2019-05-12T13:16:13.320Z,0.88
2019-05-12T13:18:36.928Z,1.10
2019-05-12T13:21:00.725Z,1.40
2019-05-12T13:23:36.827Z,1.00
2019-05-12T13:25:51.950Z,1.10
2019-05-12T13:28:19.105Z,1.10
2019-05-12T13:30:46.075Z,1.20
2019-05-12T13:33:08.863Z,1.15
2019-05-12T13:35:31.325Z,1.10
2019-05-12T13:38:00.210Z,1.20
2019-05-12T13:40:23.259Z,1.20
2019-05-12T13:42:46.484Z,1.10
2019-05-12T13:45:13.950Z,1.20
2019-05-12T13:47:39.925Z,1.10
2019-05-12T13:50:03.889Z,1.02
2019-05-12T13:52:30.254Z,1.02
2019-05-12T13:54:52.164Z,1.10
2019-05-12T13:57:15.998Z,1.17
2019-05-12T13:59:39.811Z,1.15
2019-05-12T14:02:03.715Z,1.07
2019-05-12T14:04:28.040Z,1.00
2019-05-12T14:06:53.249Z,1.10
2019-05-12T14:09:16.929Z,1.15
2019-05-12T14:11:40.605Z,1.12
2019-05-12T14:14:11.171Z,1.07
2019-05-12T14:16:30.156Z,1.15
2019-05-12T14:18:57.163Z,0.90
2019-05-12T14:21:19.477Z,1.00
2019-05-12T14:23:43.627Z,1.10
2019-05-12T14:26:09.289Z,1.32
2019-05-12T14:28:33.670Z,1.30
2019-05-12T14:30:57.537Z,1.10
2019-05-12T14:33:21.079Z,1.27
2019-05-12T14:35:46.011Z,1.30
2019-05-12T14:38:09.833Z,1.25
2019-05-12T14:40:34.856Z,1.00
2019-05-12T14:42:58.668Z,1.10
2019-05-12T14:45:27.788Z,1.00
2019-05-12T14:47:47.845Z,1.12
2019-05-12T14:50:13.845Z,1.02
2019-05-12T14:52:36.948Z,1.02
2019-05-12T14:55:03.358Z,1.22
2019-05-12T14:57:29.525Z,0.90
2019-05-12T14:59:51.582Z,1.00
2019-05-12T15:02:19.461Z,1.40
2019-05-12T15:04:40.669Z,1.40
2019-05-12T15:07:08.097Z,1.10
2019-05-12T15:09:29.688Z,1.02
2019-05-12T15:11:53.510Z,1.17
2019-05-12T15:14:17.112Z,1.20
2019-05-12T15:16:42.594Z,1.10
2019-05-12T15:19:06.268Z,1.20
2019-05-12T15:21:31.337Z,1.65
2019-05-12T15:23:55.246Z,1.30
2019-05-12T15:26:19.934Z,1.95
2019-05-12T15:28:43.808Z,1.22
2019-05-12T15:31:07.427Z,1.50
2019-05-12T15:33:33.509Z,1.70
2019-05-12T15:35:56.306Z,1.10
2019-05-12T15:38:19.858Z,4.60
2019-05-12T15:40:43.538Z,2.25
2019-05-12T15:43:09.193Z,2.10
2019-05-12T15:45:34.291Z,1.75
2019-05-12T15:47:58.115Z,1.20
2019-05-12T15:50:23.544Z,1.17
2019-05-12T15:52:47.194Z,1.10
2019-05-12T15:55:13.468Z,1.10
2019-05-12T15:57:36.373Z,1.25
2019-05-12T16:00:00.155Z,1.10
2019-05-12T16:02:23.979Z,1.32
2019-05-12T16:04:48.591Z,1.12
2019-05-12T16:07:14.210Z,1.20
2019-05-12T16:09:37.805Z,1.30
2019-05-12T16:12:09.570Z,1.12
2019-05-12T16:14:30.465Z,1.27
2019-05-12T16:16:53.577Z,1.30
2019-05-12T16:19:17.301Z,1.70
2019-05-12T16:21:40.832Z,1.30
2019-05-12T16:24:10.910Z,1.57
2019-05-12T16:26:29.795Z,1.00
2019-05-12T16:29:02.000Z,1.22
2019-05-12T16:31:18.642Z,1.30
2019-05-12T16:33:43.641Z,1.52
2019-05-12T16:36:11.474Z,1.32
2019-05-12T16:38:33.770Z,1.12
2019-05-12T16:40:57.755Z,1.00
2019-05-12T16:43:23.774Z,1.00
2019-05-12T16:45:47.540Z,1.40
2019-05-12T16:48:26.661Z,1.70
2019-05-12T16:50:36.530Z,1.50
2019-05-12T16:53:00.293Z,1.30
2019-05-12T16:55:24.264Z,1.30
2019-05-12T16:57:52.947Z,1.40
2019-05-12T17:00:14.398Z,1.27
2019-05-12T17:02:41.959Z,1.30
2019-05-12T17:05:06.628Z,1.30
2019-05-12T17:07:29.873Z,1.47
2019-05-12T17:09:54.359Z,1.07
2019-05-12T17:12:18.234Z,1.82
2019-05-12T17:14:45.667Z,1.27
2019-05-12T17:17:10.601Z,1.10
2019-05-12T17:19:34.066Z,1.30
2019-05-12T17:21:59.383Z,1.95
2019-05-12T17:24:24.742Z,1.65
2019-05-12T17:26:48.617Z,1.00
2019-05-12T17:29:13.671Z,1.50
2019-05-12T17:31:37.447Z,1.27
2019-05-12T17:34:06.565Z,1.12
2019-05-12T17:36:26.782Z,1.02
2019-05-12T17:38:51.249Z,1.20
2019-05-12T17:41:18.004Z,1.20
2019-05-12T17:43:54.834Z,1.20
2019-05-12T17:46:07.257Z,1.17
2019-05-12T17:48:31.026Z,1.25
2019-05-12T17:50:54.899Z,1.67
2019-05-12T17:53:18.997Z,1.30
2019-05-12T17:55:50.582Z,1.42
2019-05-12T17:58:08.269Z,1.20
2019-05-12T18:00:33.652Z,1.40
2019-05-12T18:03:14.551Z,1.40
2019-05-12T18:05:23.775Z,1.30
2019-05-12T18:07:50.978Z,1.70
2019-05-12T18:10:13.623Z,1.17
2019-05-12T18:12:44.525Z,1.07
2019-05-12T18:15:04.221Z,1.75
2019-05-12T18:17:28.066Z,2.25
2019-05-12T18:19:58.968Z,1.80
2019-05-12T18:22:18.166Z,1.55
2019-05-12T18:24:49.431Z,1.20
2019-05-12T18:27:07.940Z,1.20
2019-05-12T18:29:31.668Z,1.40
2019-05-12T18:31:55.710Z,1.20
2019-05-12T18:34:19.975Z,1.35
2019-05-12T18:36:43.672Z,1.10
2019-05-12T18:39:11.471Z,1.22
2019-05-12T18:41:33.821Z,1.05
2019-05-12T18:43:57.481Z,1.47
2019-05-12T18:46:23.805Z,1.20
2019-05-12T18:48:47.174Z,1.25
2019-05-12T18:51:12.217Z,1.20
2019-05-12T18:53:36.606Z,1.20
2019-05-12T18:56:00.455Z,1.10
2019-05-12T18:58:30.792Z,1.32
2019-05-12T19:00:49.613Z,1.20
2019-05-12T19:03:14.038Z,1.32
2019-05-12T19:05:38.254Z,1.30
2019-05-12T19:08:03.671Z,1.30
2019-05-12T19:10:27.293Z,1.42
2019-05-12T19:12:51.597Z,1.37
2019-05-12T19:15:21.653Z,1.45
2019-05-12T19:17:43.622Z,1.20
2019-05-12T19:20:07.890Z,8.55
2019-05-12T19:22:33.697Z,2.17
2019-05-12T19:25:00.002Z,1.50
2019-05-12T19:27:24.033Z,1.65
2019-05-12T19:29:49.168Z,1.30
2019-05-12T19:32:14.369Z,1.40
2019-05-12T19:34:39.434Z,1.50
2019-05-12T19:37:06.102Z,1.40
2019-05-12T19:39:28.678Z,1.50
2019-05-12T19:41:54.307Z,1.50
2019-05-12T19:44:19.932Z,1.50
2019-05-12T19:46:46.089Z,1.50
2019-05-12T19:49:08.849Z,1.60
2019-05-12T19:51:34.565Z,1.50
2019-05-12T19:53:58.200Z,1.60
2019-05-12T19:56:23.849Z,1.52
2019-05-12T19:58:47.694Z,1.50
2019-05-12T20:01:11.401Z,1.80
2019-05-12T20:03:34.930Z,1.80
2019-05-12T20:05:58.555Z,1.80
2019-05-12T20:08:23.103Z,2.33
2019-05-12T20:10:49.367Z,2.00
2019-05-12T20:13:13.666Z,1.70
2019-05-12T20:15:43.715Z,1.70
2019-05-12T20:18:08.057Z,1.72
2019-05-12T20:20:38.142Z,1.98
2019-05-12T20:22:59.454Z,2.62
2019-05-12T20:25:25.930Z,2.70
2019-05-12T20:27:55.864Z,2.47
2019-05-12T20:30:28.725Z,2.52
2019-05-12T20:32:55.052Z,2.50
2019-05-12T20:35:19.520Z,2.55
2019-05-12T20:37:53.150Z,2.25
2019-05-12T20:40:14.143Z,2.08
2019-05-12T20:42:55.589Z,2.35
2019-05-12T20:45:08.574Z,2.70
2019-05-12T20:47:33.844Z,2.95
2019-05-12T20:49:59.463Z,2.75
2019-05-12T20:52:23.906Z,2.40
2019-05-12T20:54:57.785Z,2.27
2019-05-12T20:57:18.442Z,2.00
2019-05-12T20:59:44.616Z,2.80
2019-05-12T21:02:08.672Z,2.37
2019-05-12T21:04:37.457Z,2.25
2019-05-12T21:06:57.734Z,2.87
2019-05-12T21:09:23.523Z,2.98
2019-05-12T21:11:46.663Z,3.70
2019-05-12T21:14:12.441Z,2.80
2019-05-12T21:16:38.963Z,2.70
2019-05-12T21:19:09.849Z,3.00
2019-05-12T21:21:33.378Z,3.02
2019-05-12T21:23:54.361Z,2.30
2019-05-12T21:26:18.370Z,2.75
2019-05-12T21:28:46.195Z,4.17
2019-05-12T21:31:07.261Z,4.30
2019-05-12T21:33:31.294Z,4.00
2019-05-12T21:35:56.084Z,3.35
2019-05-12T21:38:25.175Z,3.35
2019-05-12T21:40:45.013Z,2.62
2019-05-12T21:43:08.619Z,2.30
2019-05-12T21:45:33.877Z,2.62
2019-05-12T21:47:57.489Z,2.15
2019-05-12T21:50:24.166Z,2.40
2019-05-12T21:52:46.316Z,2.27
2019-05-12T21:55:13.516Z,2.40
2019-05-12T21:57:35.796Z,2.20
2019-05-12T21:59:59.322Z,2.00
2019-05-12T22:02:28.945Z,2.15
2019-05-12T22:04:48.825Z,2.62
2019-05-12T22:07:14.589Z,2.50
2019-05-12T22:09:41.799Z,4.50
2019-05-12T22:12:03.790Z,2.25
2019-05-12T22:14:30.409Z,2.17
2019-05-12T22:16:54.612Z,2.20
2019-05-12T22:19:18.142Z,2.47
2019-05-12T22:21:49.253Z,2.05
2019-05-12T22:24:06.898Z,2.10
2019-05-12T22:26:36.310Z,2.17
2019-05-12T22:28:55.778Z,2.20
2019-05-12T22:31:19.295Z,2.35
2019-05-12T22:33:51.623Z,2.08
2019-05-12T22:36:14.518Z,2.20
2019-05-12T22:38:33.972Z,4.70
2019-05-12T22:40:59.570Z,2.40
2019-05-12T22:43:23.735Z,2.17
2019-05-12T22:45:49.422Z,5.20
2019-05-12T22:48:12.631Z,2.10
2019-05-12T22:50:36.181Z,4.08
2019-05-12T22:52:59.709Z,2.00
2019-05-12T22:55:30.717Z,1.77
2019-05-12T22:57:48.554Z,2.50
2019-05-12T23:00:19.355Z,2.30
2019-05-12T23:02:39.679Z,2.52
2019-05-12T23:05:03.717Z,2.52
2019-05-12T23:07:29.649Z,2.45
2019-05-12T23:09:53.786Z,2.12
2019-05-12T23:12:20.208Z,2.35
2019-05-12T23:14:44.390Z,2.20
2019-05-12T23:17:08.087Z,2.40
2019-05-12T23:19:33.876Z,2.02
2019-05-12T23:21:58.716Z,2.22
2019-05-12T23:24:23.700Z,2.10
2019-05-12T23:26:48.010Z,2.08
2019-05-12T23:29:11.621Z,2.15
2019-05-12T23:31:35.122Z,2.30
2019-05-12T23:33:58.797Z,2.22
2019-05-12T23:36:35.315Z,2.02
2019-05-12T23:38:52.038Z,2.62
2019-05-12T23:41:14.940Z,2.00
2019-05-12T23:43:39.885Z,2.30
2019-05-12T23:46:03.554Z,2.00
2019-05-12T23:48:27.060Z,2.05
2019-05-12T23:50:50.631Z,2.27
2019-05-12T23:53:14.849Z,1.70
2019-05-12T23:55:38.832Z,1.90
2019-05-12T23:58:04.162Z,1.70
